Hong Kong, China
Current Conditions -  °F | °C
As of 9:30 PM on Thursday 23 Oct 2014 (Local Time) from VHHH Reporting Station
Few Clouds Few Clouds  
Wind Chill: 77°   Ceiling: Unl
Heat Index: 79°   Visibility: 6mi
Dew Point: 68°   Wind: 10mph
Humidity: 74%   Direction: 90°E
Pressure: 30"   Gusts: NA
Location:  22.28°N, 114.15°E
Report Text: VHHH 231330Z 09009KT 9000 FEW035 25/20 Q1016 NOSIG
Loading
Personal Weather Stations






























Interactive Weather Map
Tropical Storm Tracking
New forecast layout! Learn more

10-Day Weather Forecast

Advertisements
Track Severe Weather on mobile